Time;durP1;ratioP1;P1;durP2;ratioP2;P2;SDS_P1;SDS_P2;PMS_P1;PMS_P2;Temp;Humidity;BMP_temperature;BMP_pressure;BME280_temperature;BME280_humidity;BME280_pressure;Samples;Min_cycle;Max_cycle;Signal;HPM_P1;HPM_P2
2021/08/06 00:01:49;;;;;;;0.95;0.40;;;15.70;99.90;;;;;;5034192;28;20021;-81
2021/08/06 00:04:14;;;;;;;2.42;0.60;;;15.70;99.90;;;;;;5032944;28;20033;-82
2021/08/06 00:06:40;;;;;;;2.92;0.50;;;15.70;99.90;;;;;;5032590;28;20167;-81
2021/08/06 00:09:07;;;;;;;1.20;0.50;;;15.70;99.90;;;;;;5033850;28;20021;-81
2021/08/06 00:11:33;;;;;;;1.80;0.40;;;15.60;99.90;;;;;;5033856;28;20056;-81
2021/08/06 00:13:59;;;;;;;2.47;0.60;;;15.60;99.90;;;;;;5029327;28;20030;-81
2021/08/06 00:16:25;;;;;;;2.40;0.63;;;15.60;99.90;;;;;;5030317;28;20024;-81
2021/08/06 00:18:52;;;;;;;1.65;0.40;;;15.50;99.90;;;;;;5032196;28;20117;-82
2021/08/06 00:21:17;;;;;;;1.27;0.50;;;15.50;99.90;;;;;;5032551;28;20104;-81
2021/08/06 00:23:44;;;;;;;1.30;0.30;;;15.40;99.90;;;;;;5033217;28;20524;-82
2021/08/06 00:26:11;;;;;;;2.50;0.50;;;15.40;99.90;;;;;;5032489;28;20386;-81
2021/08/06 00:28:37;;;;;;;1.58;0.50;;;15.40;99.90;;;;;;5032619;28;20433;-81
2021/08/06 00:31:03;;;;;;;1.98;0.65;;;15.30;99.90;;;;;;5030262;28;20030;-81
2021/08/06 00:33:29;;;;;;;1.40;0.40;;;15.30;99.90;;;;;;5031871;28;20029;-82
2021/08/06 00:35:55;;;;;;;1.08;0.50;;;15.20;99.90;;;;;;5034719;28;20029;-82
2021/08/06 00:38:20;;;;;;;0.70;0.30;;;15.20;99.90;;;;;;5033029;28;20022;-82
2021/08/06 00:40:46;;;;;;;1.38;0.50;;;15.20;99.90;;;;;;5035391;28;20095;-81
2021/08/06 00:43:11;;;;;;;5.75;0.60;;;15.10;99.90;;;;;;5038740;28;20029;-81
2021/08/06 00:45:37;;;;;;;2.25;0.50;;;15.10;99.90;;;;;;5037891;28;20083;-82
2021/08/06 00:48:04;;;;;;;2.97;0.50;;;15.10;99.90;;;;;;5033072;28;20026;-82
2021/08/06 00:50:30;;;;;;;1.10;0.55;;;15.10;99.90;;;;;;5022641;28;20061;-81
2021/08/06 00:52:56;;;;;;;2.00;0.52;;;15.00;99.90;;;;;;5040532;28;20025;-81
2021/08/06 00:55:22;;;;;;;1.30;0.55;;;15.00;99.90;;;;;;5038934;28;20033;-81
2021/08/06 00:57:47;;;;;;;2.35;0.60;;;15.00;99.90;;;;;;5030760;28;20055;-82
2021/08/06 01:00:14;;;;;;;1.80;0.43;;;14.90;99.90;;;;;;5038390;28;20052;-81
2021/08/06 01:03:04;;;;;;;1.95;0.60;;;14.90;99.90;;;;;;5038195;28;20040;-82
2021/08/06 01:05:34;;;;;;;3.38;0.60;;;14.90;99.90;;;;;;5035781;28;20037;-82
2021/08/06 01:08:13;;;;;;;2.40;0.50;;;14.90;99.90;;;;;;5037764;28;20026;-82
2021/08/06 01:10:48;;;;;;;1.80;0.50;;;14.90;99.90;;;;;;5037269;28;20058;-81
2021/08/06 01:13:20;;;;;;;1.60;0.63;;;14.90;99.90;;;;;;5031247;28;20030;-81
2021/08/06 01:15:51;;;;;;;;;;;15.00;99.90;;;;;;5033976;28;20029;-82
2021/08/06 01:18:20;;;;;;;1.75;0.50;;;15.00;99.90;;;;;;5028726;28;20362;-81
2021/08/06 01:20:50;;;;;;;2.03;0.52;;;14.90;99.90;;;;;;5037768;28;20036;-81
2021/08/06 01:23:26;;;;;;;0.80;0.40;;;15.10;99.90;;;;;;5030364;28;20128;-82
2021/08/06 01:25:59;;;;;;;2.28;0.50;;;15.00;99.90;;;;;;5036566;28;20123;-82
2021/08/06 01:28:31;;;;;;;2.78;0.50;;;15.00;99.90;;;;;;5037520;28;20040;-81
2021/08/06 01:30:57;;;;;;;;;;;15.10;99.90;;;;;;5036324;28;20026;-82
2021/08/06 01:33:22;;;;;;;1.13;0.40;;;15.00;99.90;;;;;;5036819;28;19909;-81
2021/08/06 01:35:48;;;;;;;1.92;0.60;;;15.00;99.90;;;;;;5039590;28;20030;-82
2021/08/06 01:38:15;;;;;;;3.10;0.40;;;15.00;99.90;;;;;;5037504;28;20049;-81
2021/08/06 01:41:07;;;;;;;1.50;0.60;;;15.10;99.90;;;;;;5028561;28;20030;-81
2021/08/06 01:43:56;;;;;;;1.75;0.47;;;15.10;99.90;;;;;;5037920;28;20072;-82
2021/08/06 01:46:39;;;;;;;1.85;0.50;;;15.10;99.90;;;;;;5036832;28;20029;-81
2021/08/06 01:49:16;;;;;;;0.90;0.40;;;15.20;99.90;;;;;;5034995;28;20065;-81
2021/08/06 01:51:45;;;;;;;1.42;0.60;;;15.20;99.90;;;;;;5027889;28;20068;-81
2021/08/06 01:54:12;;;;;;;2.58;0.70;;;15.10;99.90;;;;;;5038409;28;20030;-81
2021/08/06 01:56:40;;;;;;;3.38;0.47;;;15.20;99.90;;;;;;5037727;28;20025;-82
2021/08/06 01:59:06;;;;;;;2.50;0.60;;;15.30;99.90;;;;;;5023363;28;20033;-82
2021/08/06 02:01:32;;;;;;;1.73;0.50;;;15.30;99.90;;;;;;5036301;28;20393;-82
2021/08/06 02:03:58;;;;;;;1.83;0.70;;;15.30;99.90;;;;;;5038011;28;20034;-82
2021/08/06 02:06:24;;;;;;;4.43;0.80;;;15.20;99.90;;;;;;5031778;28;20029;-82
2021/08/06 02:08:50;;;;;;;1.65;0.70;;;15.30;99.90;;;;;;5036109;28;20060;-82
2021/08/06 02:11:20;;;;;;;3.40;0.60;;;15.30;99.90;;;;;;5036049;28;20040;-82
2021/08/06 02:13:48;;;;;;;1.40;0.60;;;15.20;99.90;;;;;;5035368;28;20399;-82
2021/08/06 02:16:15;;;;;;;1.88;0.60;;;15.30;99.90;;;;;;5018729;28;20036;-82
2021/08/06 02:18:42;;;;;;;1.67;0.70;;;15.30;99.90;;;;;;5029209;28;20132;-82
2021/08/06 02:21:12;;;;;;;0.95;0.50;;;15.30;99.90;;;;;;5035923;28;20457;-82
2021/08/06 02:23:43;;;;;;;5.60;0.68;;;15.30;99.90;;;;;;5028915;28;20026;-82
2021/08/06 02:26:11;;;;;;;10.90;1.00;;;15.40;99.90;;;;;;5033161;28;20063;-82
2021/08/06 02:28:37;;;;;;;1.83;0.65;;;15.30;99.90;;;;;;5036184;28;20128;-82
2021/08/06 02:31:04;;;;;;;1.30;0.50;;;15.40;99.90;;;;;;5033747;28;20494;-82
2021/08/06 02:33:29;;;;;;;2.60;0.60;;;15.30;99.90;;;;;;5033505;28;20548;-82
2021/08/06 02:35:55;;;;;;;3.58;0.65;;;15.40;99.90;;;;;;5038401;28;20056;-82
2021/08/06 02:38:22;;;;;;;2.17;0.60;;;15.40;99.90;;;;;;5036883;28;20509;-82
2021/08/06 02:43:17;;;;;;;2.40;0.68;;;15.40;99.90;;;;;;5027421;28;20057;-83
2021/08/06 02:45:45;;;;;;;3.80;0.90;;;15.40;99.90;;;;;;5017133;28;20029;-83
2021/08/06 02:48:10;;;;;;;1.38;0.60;;;15.40;99.90;;;;;;5011568;28;20029;-83
2021/08/06 02:50:36;;;;;;;2.53;0.57;;;15.60;99.90;;;;;;5023622;28;20033;-83
2021/08/06 02:53:02;;;;;;;2.95;0.70;;;15.50;99.90;;;;;;5032153;28;20033;-83
2021/08/06 02:55:27;;;;;;;1.60;0.60;;;15.50;99.90;;;;;;5031944;28;20052;-83
2021/08/06 02:57:53;;;;;;;1.50;0.60;;;15.30;99.90;;;;;;5021563;28;20078;-83
2021/08/06 03:00:18;;;;;;;2.60;0.70;;;15.60;99.90;;;;;;5023839;28;20068;-85
2021/08/06 03:02:44;;;;;;;4.70;0.95;;;15.60;99.90;;;;;;5048993;28;20029;-83
2021/08/06 03:05:10;;;;;;;1.95;0.70;;;15.60;99.90;;;;;;5050644;28;20052;-84
2021/08/06 03:07:35;;;;;;;1.05;0.50;;;15.60;99.90;;;;;;5034796;28;20027;-84
2021/08/06 03:10:03;;;;;;;3.33;0.60;;;15.60;99.90;;;;;;5029263;28;20497;-84
2021/08/06 03:12:28;;;;;;;2.65;0.75;;;15.60;99.90;;;;;;5031570;28;20525;-83
2021/08/06 03:14:54;;;;;;;1.23;0.60;;;15.50;99.90;;;;;;5030358;28;20053;-85
2021/08/06 03:17:19;;;;;;;2.85;0.70;;;15.70;99.90;;;;;;5025456;28;20041;-83
2021/08/06 03:19:45;;;;;;;0.80;0.50;;;15.70;99.90;;;;;;5024251;28;20049;-83
2021/08/06 03:22:11;;;;;;;2.60;0.80;;;15.70;99.90;;;;;;5031716;28;20033;-84
2021/08/06 03:24:36;;;;;;;2.42;0.60;;;15.70;99.90;;;;;;5025654;28;20044;-83
2021/08/06 03:27:02;;;;;;;2.80;0.77;;;15.80;99.90;;;;;;5032507;28;20056;-84
2021/08/06 03:29:28;;;;;;;2.88;0.70;;;15.80;99.90;;;;;;5030874;28;20029;-83
2021/08/06 03:31:53;;;;;;;1.33;0.70;;;15.80;99.90;;;;;;5032972;28;20033;-83
2021/08/06 03:34:19;;;;;;;2.38;0.80;;;15.90;99.90;;;;;;5033069;28;20029;-83
2021/08/06 03:36:45;;;;;;;1.98;0.60;;;15.80;99.90;;;;;;5032597;28;20034;-83
2021/08/06 03:39:10;;;;;;;2.20;0.80;;;15.80;99.90;;;;;;5042570;28;20727;-84
2021/08/06 03:41:36;;;;;;;2.00;0.57;;;15.70;99.90;;;;;;5051678;28;20029;-84
2021/08/06 03:44:01;;;;;;;2.10;0.98;;;15.70;99.90;;;;;;5037940;28;20045;-84
2021/08/06 03:46:27;;;;;;;1.75;0.82;;;15.70;99.90;;;;;;5032980;28;20033;-83
2021/08/06 03:48:53;;;;;;;1.50;0.65;;;15.60;99.90;;;;;;5024040;28;20468;-84
2021/08/06 03:51:18;;;;;;;4.13;0.80;;;15.70;99.90;;;;;;5038622;28;20033;-83
2021/08/06 03:53:44;;;;;;;1.83;0.80;;;15.60;99.90;;;;;;5018895;28;20037;-84
2021/08/06 03:56:11;;;;;;;3.00;0.70;;;15.60;99.90;;;;;;5022865;28;20109;-83
2021/08/06 03:58:36;;;;;;;3.30;0.73;;;15.70;99.90;;;;;;5032473;28;20033;-83
2021/08/06 04:01:02;;;;;;;2.90;0.70;;;15.70;99.90;;;;;;5033866;28;20025;-84
2021/08/06 04:03:27;;;;;;;2.35;0.80;;;15.60;99.90;;;;;;5033167;28;20112;-83
2021/08/06 04:05:53;;;;;;;2.25;0.70;;;15.70;99.90;;;;;;5033185;28;20025;-84
2021/08/06 04:08:18;;;;;;;2.42;0.73;;;15.60;99.90;;;;;;5040866;28;20377;-83
2021/08/06 04:10:44;;;;;;;3.00;0.85;;;15.70;99.90;;;;;;5041312;28;20434;-83
2021/08/06 04:13:10;;;;;;;1.92;0.77;;;15.50;99.90;;;;;;5029048;28;20103;-84
2021/08/06 04:15:35;;;;;;;3.78;0.80;;;15.60;99.90;;;;;;5031037;28;20150;-83
2021/08/06 04:18:01;;;;;;;2.55;0.70;;;15.60;99.90;;;;;;5033671;28;20036;-83
2021/08/06 04:20:27;;;;;;;2.03;0.60;;;15.60;99.90;;;;;;5026178;28;20025;-84
2021/08/06 04:22:52;;;;;;;7.88;1.48;;;15.70;99.90;;;;;;5041286;28;20092;-84
2021/08/06 04:25:18;;;;;;;3.88;0.88;;;15.60;99.90;;;;;;5025219;28;20480;-84
2021/08/06 04:27:44;;;;;;;1.88;0.75;;;15.80;99.90;;;;;;5031988;28;20029;-84
2021/08/06 04:30:11;;;;;;;4.07;1.00;;;15.60;99.90;;;;;;5028491;28;20414;-83
2021/08/06 04:32:37;;;;;;;1.83;0.88;;;15.60;99.90;;;;;;5023163;28;20025;-84
2021/08/06 04:35:03;;;;;;;1.83;0.77;;;15.50;99.90;;;;;;5036593;28;20025;-84
2021/08/06 04:37:29;;;;;;;1.75;0.70;;;15.50;99.90;;;;;;5038885;28;20017;-84
2021/08/06 04:39:55;;;;;;;3.97;0.82;;;15.50;99.90;;;;;;5042714;28;20036;-82
2021/08/06 04:42:20;;;;;;;2.38;0.90;;;15.30;99.90;;;;;;5057364;28;20043;-84
2021/08/06 04:44:46;;;;;;;2.33;0.90;;;15.30;99.90;;;;;;5057998;28;20043;-84
2021/08/06 04:47:12;;;;;;;4.10;1.27;;;15.40;99.90;;;;;;5057989;28;20075;-84
2021/08/06 04:49:39;;;;;;;4.55;1.10;;;15.30;99.90;;;;;;5035005;28;20037;-84
2021/08/06 04:52:05;;;;;;;2.22;1.02;;;15.20;99.90;;;;;;5028414;28;20026;-83
2021/08/06 04:54:30;;;;;;;3.42;1.10;;;15.20;99.90;;;;;;5050872;28;20036;-83
2021/08/06 04:56:56;;;;;;;4.50;1.27;;;15.20;99.90;;;;;;5052139;28;20036;-83
2021/08/06 04:59:22;;;;;;;2.75;1.20;;;15.20;99.90;;;;;;5039260;28;20040;-83
2021/08/06 05:01:47;;;;;;;1.98;1.10;;;15.20;99.90;;;;;;5034671;28;20032;-83
2021/08/06 05:04:13;;;;;;;5.72;1.13;;;15.10;99.90;;;;;;5035555;28;20040;-84
2021/08/06 05:06:38;;;;;;;1.90;1.00;;;15.10;99.90;;;;;;5037579;28;20037;-83
2021/08/06 05:09:04;;;;;;;3.63;1.20;;;14.90;99.90;;;;;;5018418;28;20088;-83
2021/08/06 05:11:31;;;;;;;4.68;1.83;;;15.20;99.90;;;;;;5038177;28;20048;-83
2021/08/06 05:13:56;;;;;;;4.38;1.40;;;15.00;99.90;;;;;;5036948;28;20037;-83
2021/08/06 05:16:22;;;;;;;4.22;1.40;;;14.90;99.90;;;;;;5034063;28;20025;-83
2021/08/06 05:18:47;;;;;;;3.17;1.10;;;14.80;99.90;;;;;;5037445;28;20026;-83
2021/08/06 05:21:13;;;;;;;4.20;1.67;;;14.80;99.90;;;;;;5033241;28;20033;-83
2021/08/06 05:23:39;;;;;;;2.58;1.20;;;14.70;99.90;;;;;;5037501;28;20064;-83
2021/08/06 05:26:04;;;;;;;2.83;1.25;;;14.70;99.90;;;;;;5016589;28;20029;-83
2021/08/06 05:28:30;;;;;;;3.47;1.77;;;14.60;99.90;;;;;;5026094;28;20030;-84
2021/08/06 05:30:56;;;;;;;2.45;1.17;;;14.70;99.90;;;;;;5033804;28;20048;-84
2021/08/06 05:33:21;;;;;;;3.58;1.70;;;14.70;99.90;;;;;;5036262;28;20168;-83
2021/08/06 05:35:47;;;;;;;3.17;1.40;;;14.70;99.90;;;;;;5032266;28;20024;-83
2021/08/06 05:38:13;;;;;;;4.25;1.67;;;14.60;99.90;;;;;;5055964;28;20102;-83
2021/08/06 05:40:40;;;;;;;3.90;1.80;;;14.70;99.90;;;;;;5054773;28;20029;-83
2021/08/06 05:43:06;;;;;;;4.82;1.83;;;14.70;99.90;;;;;;5041985;28;20069;-84
2021/08/06 05:45:31;;;;;;;3.60;1.52;;;14.80;99.90;;;;;;5016025;28;20030;-83
2021/08/06 05:47:57;;;;;;;3.42;1.77;;;14.80;99.90;;;;;;5033103;28;20030;-83
2021/08/06 05:50:25;;;;;;;4.13;1.52;;;14.90;99.90;;;;;;5024438;28;20064;-82
2021/08/06 05:52:50;;;;;;;4.20;1.75;;;14.90;99.90;;;;;;5029885;28;20033;-83
2021/08/06 05:55:17;;;;;;;5.13;1.25;;;15.00;99.90;;;;;;5042397;28;20033;-83
2021/08/06 05:57:43;;;;;;;9.63;3.33;;;15.00;99.90;;;;;;5034934;28;20034;-82
2021/08/06 06:00:12;;;;;;;3.90;1.35;;;15.00;99.90;;;;;;5034158;28;20025;-82
2021/08/06 06:02:37;;;;;;;2.85;1.55;;;15.00;99.90;;;;;;5017522;28;20509;-82
2021/08/06 06:05:03;;;;;;;5.07;1.70;;;15.00;99.90;;;;;;5022457;28;20029;-82
2021/08/06 06:07:29;;;;;;;5.43;1.70;;;15.00;99.90;;;;;;5032089;28;20040;-83
2021/08/06 06:09:55;;;;;;;5.78;1.67;;;15.00;99.90;;;;;;5018387;28;20084;-82
2021/08/06 06:12:20;;;;;;;3.97;1.85;;;15.10;99.90;;;;;;5032038;28;20044;-83
2021/08/06 06:14:46;;;;;;;3.72;1.55;;;15.00;99.90;;;;;;5032493;28;20022;-83
2021/08/06 06:17:12;;;;;;;3.47;1.63;;;15.20;99.90;;;;;;5025011;28;20022;-82
2021/08/06 06:19:38;;;;;;;4.28;1.58;;;15.20;99.90;;;;;;5033031;28;20014;-83
2021/08/06 06:22:05;;;;;;;2.60;1.30;;;15.30;99.90;;;;;;5032145;28;20021;-84
2021/08/06 06:24:31;;;;;;;3.35;1.45;;;15.20;99.90;;;;;;5029621;28;20046;-82
2021/08/06 06:26:57;;;;;;;4.22;1.52;;;15.20;99.90;;;;;;5032588;28;20108;-82
2021/08/06 06:29:23;;;;;;;3.85;1.60;;;15.30;99.90;;;;;;5031558;28;20112;-83
2021/08/06 06:31:48;;;;;;;3.55;1.42;;;15.30;99.90;;;;;;5029571;28;20045;-82
2021/08/06 06:34:14;;;;;;;5.97;1.60;;;15.40;99.90;;;;;;5029190;28;20029;-82
2021/08/06 06:36:40;;;;;;;4.35;1.70;;;15.40;99.90;;;;;;5030962;28;20025;-89
2021/08/06 06:39:06;;;;;;;3.47;1.50;;;15.50;99.90;;;;;;5026331;28;20383;-89
2021/08/06 06:41:32;;;;;;;5.10;1.45;;;15.70;99.90;;;;;;5029973;28;20105;-90
2021/08/06 06:43:57;;;;;;;2.92;1.40;;;15.80;99.90;;;;;;5025907;28;20090;-88
2021/08/06 06:46:24;;;;;;;3.97;1.38;;;15.90;99.90;;;;;;5018673;28;20410;-89
2021/08/06 06:48:50;;;;;;;2.78;1.20;;;16.00;99.90;;;;;;5028854;28;20532;-90
2021/08/06 06:51:15;;;;;;;2.85;1.30;;;16.00;99.90;;;;;;5021838;28;20029;-89
2021/08/06 06:53:41;;;;;;;2.80;1.08;;;16.00;99.90;;;;;;5031608;28;20482;-89
2021/08/06 06:56:06;;;;;;;2.47;1.25;;;16.00;99.90;;;;;;5029766;28;20412;-89
2021/08/06 06:58:32;;;;;;;2.72;1.10;;;16.30;99.90;;;;;;5020532;28;20033;-88
2021/08/06 07:00:58;;;;;;;2.97;1.27;;;15.90;99.90;;;;;;5029738;28;20021;-90
2021/08/06 07:03:24;;;;;;;2.58;1.00;;;16.70;99.90;;;;;;5027388;28;20033;-89
2021/08/06 07:05:52;;;;;;;2.28;0.90;;;16.90;99.90;;;;;;5027921;28;20040;-88
2021/08/06 07:08:18;;;;;;;2.03;1.02;;;17.10;99.90;;;;;;5027161;28;20092;-89
2021/08/06 07:10:44;;;;;;;4.95;0.93;;;17.20;99.90;;;;;;5030054;28;20105;-89
2021/08/06 07:13:10;;;;;;;3.20;0.80;;;17.20;99.90;;;;;;5026304;28;20033;-89
2021/08/06 07:15:35;;;;;;;2.72;0.85;;;17.20;99.90;;;;;;5021313;28;20034;-88
2021/08/06 07:18:01;;;;;;;3.75;1.20;;;17.20;99.90;;;;;;5027502;28;20574;-88
2021/08/06 07:20:30;;;;;;;2.20;0.82;;;17.20;99.90;;;;;;5027845;28;20514;-87
2021/08/06 07:22:56;;;;;;;1.98;0.88;;;17.10;99.90;;;;;;5025565;28;20022;-87
2021/08/06 07:25:22;;;;;;;2.63;0.75;;;17.10;99.90;;;;;;5028848;28;20067;-87
2021/08/06 07:27:47;;;;;;;1.73;0.82;;;17.20;99.90;;;;;;5024763;28;20034;-87
2021/08/06 07:30:15;;;;;;;1.80;0.90;;;17.20;99.90;;;;;;5028411;28;20033;-86
2021/08/06 07:32:41;;;;;;;3.15;0.70;;;17.30;99.90;;;;;;5026386;28;20049;-88
2021/08/06 07:35:07;;;;;;;1.77;0.70;;;17.50;99.90;;;;;;5018954;28;20100;-88
2021/08/06 07:37:33;;;;;;;1.95;0.80;;;17.40;99.90;;;;;;5027607;28;20057;-86
2021/08/06 07:39:59;;;;;;;2.83;0.80;;;17.70;99.90;;;;;;5024575;28;20061;-88
2021/08/06 07:42:25;;;;;;;3.50;0.88;;;17.50;99.90;;;;;;5012856;28;20167;-89
2021/08/06 07:44:53;;;;;;;3.38;0.80;;;17.60;99.90;;;;;;5028008;28;20501;-88
2021/08/06 07:47:19;;;;;;;4.38;1.00;;;17.60;99.90;;;;;;5025617;28;20753;-88
2021/08/06 07:49:45;;;;;;;1.50;0.60;;;18.00;99.90;;;;;;5019138;28;20129;-88
2021/08/06 07:52:15;;;;;;;1.83;0.70;;;17.40;99.90;;;;;;5029506;28;20022;-88
2021/08/06 07:54:41;;;;;;;2.65;0.80;;;17.70;99.90;;;;;;5026021;28;20057;-87
2021/08/06 07:57:06;;;;;;;3.03;0.90;;;17.50;99.90;;;;;;5018634;28;20550;-87
2021/08/06 07:59:32;;;;;;;1.90;0.70;;;17.50;99.90;;;;;;5016372;28;20091;-87
2021/08/06 08:01:59;;;;;;;2.40;1.10;;;17.60;99.90;;;;;;5011304;28;20097;-87
2021/08/06 08:04:24;;;;;;;4.10;1.00;;;17.50;99.90;;;;;;5010012;28;20022;-88
2021/08/06 08:06:50;;;;;;;1.35;0.50;;;17.20;99.90;;;;;;5010070;28;20029;-88
2021/08/06 08:09:15;;;;;;;0.93;0.30;;;17.00;99.90;;;;;;5021934;28;20571;-88
2021/08/06 08:11:41;;;;;;;1.55;0.30;;;16.70;99.90;;;;;;5022388;28;20038;-88
2021/08/06 08:14:07;;;;;;;1.25;0.35;;;17.00;99.90;;;;;;5029713;28;20029;-88
2021/08/06 08:16:32;;;;;;;1.38;0.32;;;16.70;99.90;;;;;;5014570;28;20347;-88
2021/08/06 08:18:58;;;;;;;1.45;0.30;;;16.10;99.90;;;;;;5021366;28;20037;-86
2021/08/06 08:21:24;;;;;;;1.10;0.47;;;16.00;99.90;;;;;;5010350;28;20087;-87
2021/08/06 08:23:51;;;;;;;1.20;0.40;;;16.10;99.90;;;;;;5020646;28;20574;-87
2021/08/06 08:26:16;;;;;;;1.08;0.35;;;16.40;99.90;;;;;;5013194;28;20121;-87
2021/08/06 08:28:42;;;;;;;2.85;0.40;;;15.90;99.90;;;;;;5009807;28;20117;-87
2021/08/06 08:31:08;;;;;;;0.75;0.38;;;16.60;99.90;;;;;;5010031;28;20034;-87
2021/08/06 08:33:34;;;;;;;2.85;0.70;;;16.80;99.90;;;;;;5009793;28;20030;-87
2021/08/06 08:35:59;;;;;;;2.58;0.40;;;16.90;99.90;;;;;;5011603;28;20088;-87
2021/08/06 08:38:25;;;;;;;0.38;0.25;;;17.10;99.90;;;;;;5017866;28;20030;-89
2021/08/06 08:40:54;;;;;;;1.10;0.30;;;17.30;99.90;;;;;;5069581;22;20135;-84
2021/08/06 08:43:20;;;;;;;1.30;0.40;;;17.50;99.90;;;;;;5042675;28;20527;-84
2021/08/06 08:45:47;;;;;;;1.83;0.25;;;17.70;99.90;;;;;;5064535;28;20037;-84
2021/08/06 08:48:14;;;;;;;2.53;0.40;;;17.90;99.90;;;;;;5056978;28;20020;-86
2021/08/06 08:50:42;;;;;;;0.90;0.40;;;18.00;99.90;;;;;;5047936;28;20108;-85
2021/08/06 08:53:09;;;;;;;1.88;0.40;;;18.30;99.90;;;;;;5065456;28;20611;-85
2021/08/06 08:55:39;;;;;;;0.60;0.30;;;18.40;99.90;;;;;;5050567;28;21507;-85
2021/08/06 08:58:06;;;;;;;2.50;0.30;;;18.70;99.90;;;;;;5053653;28;20025;-85
2021/08/06 09:00:32;;;;;;;2.03;0.25;;;18.90;99.90;;;;;;5052656;28;20033;-84
2021/08/06 09:02:58;;;;;;;2.20;0.35;;;19.10;99.90;;;;;;5057521;28;20026;-85
2021/08/06 09:05:25;;;;;;;2.53;0.30;;;19.30;99.90;;;;;;5054397;28;20036;-85
2021/08/06 09:07:51;;;;;;;2.35;0.60;;;19.20;99.90;;;;;;5052564;28;20037;-85
2021/08/06 09:10:27;;;;;;;4.78;0.40;;;19.20;99.90;;;;;;5066700;28;20049;-86
2021/08/06 09:13:03;;;;;;;1.35;0.30;;;19.30;99.90;;;;;;5052275;28;20504;-85
2021/08/06 09:15:54;;;;;;;0.90;0.35;;;19.50;99.90;;;;;;5055730;28;20082;-85
2021/08/06 09:18:23;;;;;;;0.75;0.35;;;19.60;99.90;;;;;;5039718;28;20029;-85
2021/08/06 09:20:53;;;;;;;0.90;0.38;;;19.60;99.90;;;;;;5054261;28;20025;-86
2021/08/06 09:23:39;;;;;;;2.25;0.40;;;19.70;99.90;;;;;;5065742;28;20137;-85
2021/08/06 09:26:06;;;;;;;1.05;0.40;;;19.60;99.90;;;;;;5059469;28;20461;-85
2021/08/06 09:28:32;;;;;;;1.02;0.30;;;19.40;99.90;;;;;;5068221;28;20033;-86
2021/08/06 09:31:14;;;;;;;2.03;0.35;;;19.30;99.90;;;;;;5052414;28;20028;-85
2021/08/06 09:33:39;;;;;;;2.40;0.40;;;19.20;99.90;;;;;;5052404;28;20090;-86
2021/08/06 09:36:10;;;;;;;0.75;0.35;;;19.20;99.90;;;;;;5052109;28;20041;-85
2021/08/06 09:38:35;;;;;;;1.50;0.43;;;19.10;99.90;;;;;;5050340;28;20025;-86
2021/08/06 09:41:01;;;;;;;2.33;0.43;;;19.00;99.90;;;;;;5051048;28;20032;-84
2021/08/06 09:43:27;;;;;;;1.05;0.47;;;18.90;99.90;;;;;;5060301;28;20029;-84
2021/08/06 09:45:52;;;;;;;2.50;0.50;;;18.90;99.90;;;;;;5077165;28;20028;-84
2021/08/06 09:48:23;;;;;;;1.75;0.50;;;18.80;99.90;;;;;;5054894;28;20431;-84
2021/08/06 09:50:48;;;;;;;3.30;0.40;;;18.80;99.90;;;;;;5052873;28;20024;-84
2021/08/06 09:53:14;;;;;;;1.27;0.40;;;18.90;99.90;;;;;;5052207;28;20538;-84
2021/08/06 09:55:49;;;;;;;1.38;0.35;;;19.00;99.90;;;;;;5053636;28;20029;-82
2021/08/06 09:58:18;;;;;;;1.58;0.40;;;19.40;99.90;;;;;;5056749;28;20009;-82
2021/08/06 10:00:46;;;;;;;1.38;0.40;;;20.00;99.90;;;;;;5055652;28;20443;-82
2021/08/06 10:03:32;;;;;;;1.55;0.40;;;20.30;99.90;;;;;;5055308;28;20021;-82
2021/08/06 10:06:12;;;;;;;2.85;0.40;;;20.60;99.90;;;;;;5054723;28;20083;-82
2021/08/06 10:08:38;;;;;;;2.50;0.70;;;21.10;99.90;;;;;;5060479;28;20564;-82
2021/08/06 10:11:03;;;;;;;1.30;0.38;;;21.50;99.90;;;;;;5069530;28;20056;-82
2021/08/06 10:13:29;;;;;;;1.88;0.40;;;21.70;99.90;;;;;;5063849;28;20036;-83
2021/08/06 10:15:56;;;;;;;0.65;0.40;;;21.90;99.90;;;;;;5053869;28;20647;-83
2021/08/06 10:18:23;;;;;;;1.85;0.40;;;21.80;99.90;;;;;;5051928;28;20035;-84
2021/08/06 10:20:52;;;;;;;1.75;0.40;;;21.80;99.90;;;;;;5065932;28;20500;-83
2021/08/06 10:23:18;;;;;;;1.67;0.45;;;21.30;99.90;;;;;;5064774;28;20040;-83
2021/08/06 10:25:45;;;;;;;1.77;0.40;;;20.90;99.90;;;;;;5066749;28;20033;-85
2021/08/06 10:28:11;;;;;;;1.13;0.30;;;20.80;99.90;;;;;;5066613;28;20117;-85
2021/08/06 10:30:38;;;;;;;1.52;0.40;;;20.80;99.90;;;;;;5048936;28;20110;-83
2021/08/06 10:33:28;;;;;;;3.17;0.40;;;20.70;99.90;;;;;;5061530;28;20420;-84
2021/08/06 10:36:06;;;;;;;1.38;0.43;;;20.70;99.90;;;;;;5055554;28;20025;-83
2021/08/06 10:38:36;;;;;;;1.38;0.50;;;20.80;99.90;;;;;;5051047;28;20033;-83
2021/08/06 10:41:04;;;;;;;2.35;0.43;;;20.80;99.90;;;;;;5050149;28;20087;-83
2021/08/06 10:43:43;;;;;;;2.08;0.40;;;20.60;99.90;;;;;;5074933;28;20020;-84
2021/08/06 10:46:10;;;;;;;2.08;0.50;;;20.50;99.90;;;;;;5065378;28;20416;-84
2021/08/06 10:48:44;;;;;;;1.13;0.40;;;20.40;99.90;;;;;;5068415;28;20054;-83
2021/08/06 10:51:16;;;;;;;1.48;0.32;;;20.20;99.90;;;;;;5050482;28;20034;-83
2021/08/06 10:53:54;;;;;;;;;;;20.30;99.90;;;;;;5046899;28;20486;-83
2021/08/06 10:56:22;;;;;;;2.45;0.52;;;20.20;99.90;;;;;;5031329;28;19912;-83
2021/08/06 10:58:50;;;;;;;2.63;0.70;;;20.20;99.90;;;;;;5046207;28;20437;-82
2021/08/06 11:01:32;;;;;;;2.63;0.60;;;20.20;99.90;;;;;;5063613;28;20021;-83
2021/08/06 11:04:03;;;;;;;1.40;0.40;;;20.10;99.90;;;;;;5057229;28;20021;-83
2021/08/06 11:06:48;;;;;;;2.03;0.43;;;19.80;99.90;;;;;;5067597;28;20024;-81
2021/08/06 11:09:24;;;;;;;2.00;0.47;;;19.70;99.90;;;;;;5050061;28;20028;-83
2021/08/06 11:11:54;;;;;;;2.08;0.50;;;19.60;99.90;;;;;;5058533;28;20024;-82
2021/08/06 11:14:28;;;;;;;1.17;0.30;;;19.50;99.90;;;;;;5054309;28;20021;-83
2021/08/06 11:17:15;;;;;;;2.38;0.50;;;19.40;99.90;;;;;;5069959;28;20026;-83
2021/08/06 11:19:50;;;;;;;3.58;0.50;;;19.50;99.90;;;;;;5051202;28;20013;-83
2021/08/06 11:22:17;;;;;;;1.15;0.30;;;19.70;99.90;;;;;;5053550;28;20120;-83
2021/08/06 11:24:45;;;;;;;1.85;0.50;;;20.00;99.90;;;;;;5050955;28;20103;-83
2021/08/06 11:27:12;;;;;;;2.22;0.40;;;20.70;99.90;;;;;;5057905;28;20021;-83
2021/08/06 11:29:40;;;;;;;2.08;0.40;;;21.00;99.90;;;;;;5085890;28;20116;-83
2021/08/06 11:32:08;;;;;;;1.23;0.30;;;21.20;99.90;;;;;;5070609;28;20021;-83
2021/08/06 11:34:56;;;;;;;1.20;0.30;;;21.30;99.90;;;;;;5082280;28;20478;-82
2021/08/06 11:37:26;;;;;;;2.20;0.50;;;21.50;99.90;;;;;;5050644;28;20033;-85
2021/08/06 11:40:10;;;;;;;1.50;0.47;;;21.60;99.90;;;;;;5052227;28;20071;-82
2021/08/06 11:42:37;;;;;;;2.67;0.65;;;21.90;99.90;;;;;;5053102;28;20037;-81
2021/08/06 11:45:05;;;;;;;1.73;0.32;;;22.40;99.90;;;;;;5054908;28;20031;-83
2021/08/06 11:48:01;;;;;;;1.70;0.40;;;23.10;99.90;;;;;;5048817;28;20028;-83
2021/08/06 11:50:45;;;;;;;1.70;0.30;;;23.20;99.90;;;;;;5053875;28;20085;-83
2021/08/06 11:53:12;;;;;;;1.55;0.40;;;23.60;99.90;;;;;;5046656;28;20154;-83
2021/08/06 11:55:38;;;;;;;0.75;0.22;;;23.80;99.90;;;;;;5054336;28;20033;-83
2021/08/06 11:58:03;;;;;;;0.88;0.38;;;23.20;99.90;;;;;;5085036;28;20024;-83
2021/08/06 12:00:34;;;;;;;1.98;0.50;;;22.50;99.90;;;;;;5056685;28;20040;-83
2021/08/06 12:03:03;;;;;;;2.00;0.30;;;22.30;99.90;;;;;;5059125;28;20032;-83
2021/08/06 12:05:29;;;;;;;3.47;0.40;;;22.10;99.90;;;;;;5060932;28;20025;-84
2021/08/06 12:07:54;;;;;;;3.72;0.60;;;21.90;99.90;;;;;;5084564;28;20387;-83
2021/08/06 12:10:27;;;;;;;2.35;0.40;;;21.70;99.90;;;;;;5084940;28;20037;-83
2021/08/06 12:12:54;;;;;;;3.53;0.50;;;21.60;99.90;;;;;;5074773;28;20032;-82
2021/08/06 12:15:25;;;;;;;1.85;0.38;;;21.60;99.90;;;;;;5046043;28;20120;-83
2021/08/06 12:18:09;;;;;;;1.17;0.40;;;21.30;99.90;;;;;;5030495;28;20084;-83
2021/08/06 12:20:36;;;;;;;0.80;0.30;;;21.30;99.90;;;;;;5030099;28;20103;-84
2021/08/06 12:23:03;;;;;;;1.75;0.38;;;21.40;99.90;;;;;;5029432;28;20163;-84
2021/08/06 12:25:31;;;;;;;1.65;0.40;;;21.60;99.90;;;;;;5045161;28;20064;-85
2021/08/06 12:27:58;;;;;;;5.88;0.60;;;22.20;99.90;;;;;;5067616;28;20501;-84
2021/08/06 12:30:29;;;;;;;1.27;0.38;;;22.40;99.90;;;;;;5064548;28;20034;-83
2021/08/06 12:32:55;;;;;;;3.30;0.57;;;22.60;99.90;;;;;;5031498;28;20522;-83
2021/08/06 12:35:24;;;;;;;1.60;0.40;;;22.60;99.90;;;;;;5047211;28;20030;-83
2021/08/06 12:37:50;;;;;;;1.75;0.30;;;22.80;99.90;;;;;;5052364;28;20630;-83
2021/08/06 12:40:16;;;;;;;1.90;0.40;;;23.40;99.90;;;;;;5068910;28;20043;-84
2021/08/06 12:42:42;;;;;;;1.35;0.40;;;23.80;99.90;;;;;;5053862;28;20137;-85
2021/08/06 12:45:21;;;;;;;2.22;0.35;;;24.30;99.90;;;;;;5053720;28;20090;-84
2021/08/06 12:47:49;;;;;;;1.38;0.40;;;24.20;99.90;;;;;;5067824;28;20029;-84
2021/08/06 12:50:21;;;;;;;1.60;0.32;;;24.80;99.90;;;;;;5053359;28;20036;-84
2021/08/06 12:53:08;;;;;;;1.42;0.40;;;24.70;99.80;;;;;;5053358;28;20035;-84
2021/08/06 12:55:34;;;;;;;1.02;0.32;;;24.60;99.60;;;;;;5065694;28;20026;-84